createdAt,value
2018-12-17T00:02:41.844Z,70.79
2018-12-17T00:06:47.244Z,70.69
2018-12-17T00:10:52.234Z,70.94
2018-12-17T00:14:57.239Z,70.99
2018-12-17T00:19:02.168Z,70.98
2018-12-17T00:23:07.211Z,70.92
2018-12-17T00:27:12.174Z,71.22
2018-12-17T00:31:17.056Z,71.12
2018-12-17T00:35:21.970Z,71.06
2018-12-17T00:39:26.924Z,71.19
2018-12-17T00:47:44.150Z,71.55
2018-12-17T00:51:49.072Z,71.50
2018-12-17T00:55:53.954Z,71.79
2018-12-17T00:59:58.910Z,71.93
2018-12-17T01:04:03.855Z,71.96
2018-12-17T01:08:08.869Z,71.94
2018-12-17T01:12:13.859Z,71.90
2018-12-17T01:16:18.768Z,71.81
2018-12-17T01:20:23.750Z,71.42
2018-12-17T01:24:28.735Z,71.48
2018-12-17T01:32:45.930Z,71.55
2018-12-17T01:36:50.851Z,71.68
2018-12-17T01:45:08.039Z,71.60
2018-12-17T01:49:12.989Z,71.69
2018-12-17T01:53:17.861Z,71.74
2018-12-17T01:57:22.829Z,71.68
2018-12-17T02:01:27.826Z,71.74
2018-12-17T02:05:32.763Z,71.78
2018-12-17T02:09:37.681Z,71.82
2018-12-17T02:13:42.635Z,71.85
2018-12-17T02:17:47.624Z,71.63
2018-12-17T02:21:52.568Z,71.67
2018-12-17T02:25:57.502Z,71.72
2018-12-17T02:30:02.422Z,72.02
2018-12-17T02:34:07.732Z,72.02
2018-12-17T02:38:12.633Z,71.98
2018-12-17T02:42:17.495Z,71.96
2018-12-17T02:46:22.428Z,72.02
2018-12-17T02:50:27.317Z,71.95
2018-12-17T02:54:32.294Z,72.07
2018-12-17T02:58:43.854Z,71.78
2018-12-17T03:02:44.027Z,71.89
2018-12-17T03:06:48.937Z,72.05
2018-12-17T03:10:54.845Z,72.07
2018-12-17T03:14:59.774Z,72.45
2018-12-17T03:19:04.694Z,72.39
2018-12-17T03:23:09.611Z,72.70
2018-12-17T03:27:14.569Z,72.43
2018-12-17T03:31:19.497Z,72.47
2018-12-17T03:35:24.464Z,72.32
2018-12-17T03:39:29.395Z,72.36
2018-12-17T03:43:34.297Z,72.38
2018-12-17T03:47:39.282Z,72.43
2018-12-17T03:51:44.181Z,72.58
2018-12-17T03:55:49.123Z,72.65
2018-12-17T03:59:54.055Z,72.67
2018-12-17T04:04:06.209Z,72.58
2018-12-17T04:08:11.080Z,72.84
2018-12-17T04:12:16.365Z,72.98
2018-12-17T04:16:21.291Z,72.93
2018-12-17T04:20:26.239Z,72.71
2018-12-17T04:24:31.207Z,72.58
2018-12-17T04:28:36.166Z,72.74
2018-12-17T04:32:41.421Z,72.80
2018-12-17T04:36:46.298Z,72.86
2018-12-17T04:40:51.228Z,73.00
2018-12-17T04:44:56.124Z,73.07
2018-12-17T04:49:01.127Z,73.06
2018-12-17T04:53:06.150Z,72.97
2018-12-17T05:01:54.135Z,72.77
2018-12-17T05:05:59.009Z,72.65
2018-12-17T05:10:03.960Z,72.64
2018-12-17T05:14:08.843Z,72.81
2018-12-17T05:18:13.881Z,72.60
2018-12-17T05:26:50.095Z,72.31
2018-12-17T05:30:55.049Z,72.56
2018-12-17T05:34:59.986Z,72.67
2018-12-17T05:39:16.556Z,72.79
2018-12-17T05:43:21.466Z,72.54
2018-12-17T05:47:26.336Z,72.64
2018-12-17T05:51:31.303Z,72.63
2018-12-17T05:55:36.200Z,72.58
2018-12-17T05:59:41.476Z,72.58
2018-12-17T06:03:46.450Z,72.42
2018-12-17T06:07:51.375Z,72.58
2018-12-17T06:11:56.280Z,72.68
2018-12-17T06:16:01.193Z,72.45
2018-12-17T06:20:06.442Z,72.55
2018-12-17T06:24:11.303Z,72.51
2018-12-17T06:28:16.207Z,72.56
2018-12-17T06:32:21.115Z,72.70
2018-12-17T06:36:26.034Z,72.70
2018-12-17T06:40:30.962Z,72.44
2018-12-17T06:44:35.956Z,72.50
2018-12-17T06:48:40.845Z,72.39
2018-12-17T06:52:45.820Z,72.33
2018-12-17T06:56:50.742Z,72.32
2018-12-17T07:00:55.717Z,72.40
2018-12-17T07:05:00.625Z,72.36
2018-12-17T07:09:06.613Z,72.38
2018-12-17T07:13:11.568Z,72.03
2018-12-17T07:17:16.520Z,71.88
2018-12-17T07:21:21.451Z,71.73
2018-12-17T07:25:26.365Z,71.72
2018-12-17T07:29:31.336Z,71.86
2018-12-17T07:33:36.185Z,71.75
2018-12-17T07:37:41.072Z,71.93
2018-12-17T07:41:46.084Z,71.83
2018-12-17T07:50:01.989Z,72.02
2018-12-17T07:54:06.919Z,72.13
2018-12-17T07:58:11.863Z,72.18
2018-12-17T08:02:16.837Z,71.99
2018-12-17T08:06:21.829Z,72.02
2018-12-17T08:10:26.693Z,71.90
2018-12-17T08:14:31.613Z,71.75
2018-12-17T08:18:36.522Z,71.89
2018-12-17T08:26:53.561Z,72.02
2018-12-17T08:30:58.520Z,71.96
2018-12-17T08:35:03.457Z,72.04
2018-12-17T08:39:09.451Z,72.19
2018-12-17T08:43:31.226Z,72.07
2018-12-17T08:47:24.165Z,71.88
2018-12-17T08:51:28.983Z,71.91
2018-12-17T08:55:33.825Z,71.80
2018-12-17T08:59:38.690Z,71.84
2018-12-17T09:03:43.485Z,71.84
2018-12-17T09:07:48.297Z,72.07
2018-12-17T09:11:53.137Z,71.79
2018-12-17T09:15:58.014Z,71.53
2018-12-17T09:20:02.918Z,71.54
2018-12-17T09:28:31.847Z,71.87
2018-12-17T09:32:36.793Z,71.62
2018-12-17T09:36:41.712Z,71.73
2018-12-17T09:40:46.808Z,71.55
2018-12-17T09:44:51.654Z,71.48
2018-12-17T09:48:56.595Z,71.64
2018-12-17T09:53:01.470Z,71.89
2018-12-17T09:57:06.485Z,71.82
2018-12-17T10:01:11.339Z,71.31
2018-12-17T10:05:16.266Z,71.50
2018-12-17T10:14:14.609Z,71.43
2018-12-17T10:18:19.605Z,71.58
2018-12-17T10:26:36.522Z,71.59
2018-12-17T10:30:41.435Z,71.53
2018-12-17T10:43:19.147Z,71.22
2018-12-17T10:47:23.949Z,71.18
2018-12-17T10:51:28.821Z,71.14
2018-12-17T10:55:33.631Z,71.17
2018-12-17T10:59:38.407Z,71.12
2018-12-17T11:04:01.989Z,71.03
2018-12-17T11:08:06.950Z,70.71
2018-12-17T11:12:11.824Z,70.86
2018-12-17T11:16:17.040Z,70.81
2018-12-17T11:20:21.937Z,70.53
2018-12-17T11:24:27.057Z,70.64
2018-12-17T11:28:32.005Z,70.66
2018-12-17T11:37:02.769Z,70.52
2018-12-17T11:41:07.756Z,70.56
2018-12-17T11:45:12.725Z,70.52
2018-12-17T11:49:17.641Z,70.34
2018-12-17T11:53:22.566Z,69.88
2018-12-17T11:58:05.243Z,70.25
2018-12-17T12:02:10.214Z,70.40
2018-12-17T12:06:34.044Z,70.58
2018-12-17T12:10:39.013Z,70.68
2018-12-17T12:15:02.797Z,70.62
2018-12-17T12:19:26.586Z,70.74
2018-12-17T12:23:31.506Z,70.72
2018-12-17T12:27:55.323Z,70.97
2018-12-17T12:32:19.196Z,71.04
2018-12-17T12:36:25.445Z,71.02
2018-12-17T12:40:30.313Z,70.97
2018-12-17T12:44:54.099Z,71.32
2018-12-17T12:49:03.877Z,71.31
2018-12-17T12:53:08.877Z,71.47
2018-12-17T12:57:19.809Z,71.47
2018-12-17T13:01:26.892Z,71.49
2018-12-17T13:05:50.663Z,71.63
2018-12-17T13:09:55.590Z,71.77
2018-12-17T13:14:19.334Z,71.83
2018-12-17T13:18:43.083Z,72.03
2018-12-17T13:22:51.236Z,72.49
2018-12-17T13:26:56.213Z,73.25
2018-12-17T13:31:02.989Z,72.72
2018-12-17T13:35:11.175Z,72.79
2018-12-17T13:39:19.459Z,72.92
2018-12-17T13:43:24.356Z,72.76
2018-12-17T13:47:48.103Z,73.01
2018-12-17T13:52:13.506Z,72.89
2018-12-17T13:56:18.402Z,73.07
2018-12-17T14:00:42.169Z,72.75
2018-12-17T14:04:48.460Z,73.19
2018-12-17T14:08:53.380Z,73.42
2018-12-17T14:13:17.433Z,73.48
2018-12-17T14:17:40.838Z,73.31
2018-12-17T14:22:07.988Z,73.25
2018-12-17T14:26:13.237Z,73.21
2018-12-17T14:30:37.241Z,73.13
2018-12-17T14:35:01.303Z,73.04
2018-12-17T14:39:09.935Z,73.05
2018-12-17T14:43:14.825Z,73.05
2018-12-17T14:47:38.563Z,73.22
2018-12-17T14:51:44.871Z,73.20
2018-12-17T14:55:49.852Z,73.39
2018-12-17T15:00:13.719Z,73.70
2018-12-17T15:04:21.835Z,73.43
2018-12-17T15:08:26.775Z,73.87
2018-12-17T15:12:50.455Z,73.81
2018-12-17T15:17:14.208Z,74.25
2018-12-17T15:21:24.124Z,74.23
2018-12-17T15:25:29.062Z,74.20
2018-12-17T15:29:52.951Z,74.53
2018-12-17T15:33:59.157Z,75.14
2018-12-17T15:38:22.864Z,74.80
2018-12-17T15:42:27.849Z,74.44
2018-12-17T15:46:51.612Z,74.92
2018-12-17T15:51:15.425Z,74.57
2018-12-17T15:55:20.293Z,74.62
2018-12-17T15:59:44.175Z,74.79
2018-12-17T16:04:07.933Z,74.87
2018-12-17T16:08:12.897Z,75.21
2018-12-17T16:12:36.642Z,75.12
2018-12-17T16:16:42.994Z,74.89
2018-12-17T16:21:06.776Z,75.44
2018-12-17T16:25:20.904Z,75.15
2018-12-17T16:29:25.866Z,75.10
2018-12-17T16:33:49.576Z,75.05
2018-12-17T16:38:13.302Z,75.24
2018-12-17T16:42:18.277Z,75.44
2018-12-17T16:46:42.072Z,75.47
2018-12-17T16:51:05.771Z,76.05
2018-12-17T16:55:12.428Z,75.82
2018-12-17T16:59:17.280Z,76.31
2018-12-17T17:03:41.936Z,75.99
2018-12-17T17:08:05.729Z,75.90
2018-12-17T17:12:11.965Z,75.84
2018-12-17T17:16:16.902Z,75.68
2018-12-17T17:20:40.724Z,75.83
2018-12-17T17:24:47.261Z,76.15
2018-12-17T17:28:52.307Z,75.79
2018-12-17T17:33:16.062Z,75.93
2018-12-17T17:37:39.961Z,75.72
2018-12-17T17:41:44.973Z,75.40
2018-12-17T17:45:49.961Z,75.45
2018-12-17T17:49:54.884Z,75.39
2018-12-17T17:54:18.709Z,75.57
2018-12-17T17:58:42.548Z,75.77
2018-12-17T18:02:50.553Z,75.90
2018-12-17T18:07:14.676Z,75.72
2018-12-17T18:11:20.990Z,75.54
2018-12-17T18:15:26.022Z,75.44
2018-12-17T18:19:31.011Z,75.35
2018-12-17T18:23:36.024Z,75.52
2018-12-17T18:27:41.041Z,75.58
2018-12-17T18:31:45.931Z,75.63
2018-12-17T18:36:09.659Z,75.66
2018-12-17T18:40:14.458Z,75.73
2018-12-17T18:44:19.938Z,75.64
2018-12-17T18:48:24.762Z,75.59
2018-12-17T18:52:48.486Z,75.57
2018-12-17T18:56:53.521Z,75.60
2018-12-17T19:01:17.226Z,75.66
2018-12-17T19:05:22.041Z,75.71
2018-12-17T19:09:26.988Z,75.68
2018-12-17T19:13:31.992Z,75.75
2018-12-17T19:17:36.840Z,75.89
2018-12-17T19:21:42.055Z,75.82
2018-12-17T19:25:47.005Z,75.73
2018-12-17T19:29:51.903Z,75.74
2018-12-17T19:33:56.844Z,75.73
2018-12-17T19:38:01.739Z,75.54
2018-12-17T19:42:06.599Z,75.46
2018-12-17T19:46:11.610Z,75.57
2018-12-17T19:50:16.562Z,75.63
2018-12-17T19:54:21.669Z,75.73
2018-12-17T19:58:26.688Z,75.54
2018-12-17T20:02:31.601Z,75.54
2018-12-17T20:06:36.507Z,75.54
2018-12-17T20:10:41.403Z,75.61
2018-12-17T20:14:46.360Z,75.64
2018-12-17T20:18:51.329Z,75.82
2018-12-17T20:22:56.210Z,75.81
2018-12-17T20:27:01.117Z,75.95
2018-12-17T20:31:06.065Z,76.02
2018-12-17T20:35:11.147Z,76.11
2018-12-17T20:39:16.097Z,76.24
2018-12-17T20:43:21.034Z,76.18
2018-12-17T20:47:26.006Z,76.19
2018-12-17T20:51:31.333Z,76.17
2018-12-17T20:55:36.298Z,76.20
2018-12-17T20:59:41.280Z,76.20
2018-12-17T21:03:46.190Z,76.13
2018-12-17T21:07:51.110Z,76.20
2018-12-17T21:11:55.990Z,76.34
2018-12-17T21:16:00.942Z,76.28
2018-12-17T21:20:05.961Z,76.28
2018-12-17T21:24:13.838Z,76.19
2018-12-17T21:28:18.662Z,76.39
2018-12-17T21:32:23.791Z,76.44
2018-12-17T21:36:28.727Z,76.52
2018-12-17T21:40:33.697Z,76.46
2018-12-17T21:44:38.547Z,76.46
2018-12-17T21:48:43.643Z,76.57
2018-12-17T21:52:48.632Z,76.58
2018-12-17T21:56:53.517Z,76.49
2018-12-17T22:00:58.495Z,76.32
2018-12-17T22:05:03.412Z,76.24
2018-12-17T22:09:09.156Z,76.28
2018-12-17T22:13:14.097Z,76.30
2018-12-17T22:17:19.004Z,76.15
2018-12-17T22:21:24.968Z,76.04
2018-12-17T22:25:29.838Z,75.90
2018-12-17T22:29:34.811Z,75.98
2018-12-17T22:33:39.784Z,75.97
2018-12-17T22:37:44.772Z,75.99
2018-12-17T22:41:49.723Z,75.87
2018-12-17T22:45:54.715Z,75.79
2018-12-17T22:49:59.695Z,75.84
2018-12-17T22:54:04.646Z,76.03
2018-12-17T22:58:09.748Z,76.29
2018-12-17T23:02:14.706Z,76.38
2018-12-17T23:06:19.665Z,76.45
2018-12-17T23:10:59.688Z,76.40
2018-12-17T23:15:39.748Z,76.44
2018-12-17T23:19:47.629Z,76.46
2018-12-17T23:23:52.669Z,76.47
2018-12-17T23:27:57.893Z,76.39
2018-12-17T23:32:02.926Z,76.31
2018-12-17T23:36:07.919Z,76.26
2018-12-17T23:40:12.853Z,76.24
2018-12-17T23:44:17.839Z,76.18
2018-12-17T23:48:22.813Z,76.33
2018-12-17T23:52:27.732Z,76.51
2018-12-17T23:56:32.655Z,76.47
